sensor_id;sensor_type;location;lat;lon;timestamp;P1;durP1;ratioP1;P2;durP2;ratioP2
73015;SDS011;61893;50.074;14.440;2023-02-15T00:01:11;40.00;;;18.00;;
73015;SDS011;61893;50.074;14.440;2023-02-15T00:03:47;39.10;;;17.13;;
73015;SDS011;61893;50.074;14.440;2023-02-15T00:06:28;44.20;;;19.23;;
73015;SDS011;61893;50.074;14.440;2023-02-15T00:09:05;44.95;;;17.75;;
73015;SDS011;61893;50.074;14.440;2023-02-15T00:12:06;44.93;;;17.40;;
73015;SDS011;61893;50.074;14.440;2023-02-15T00:14:53;44.63;;;17.40;;
73015;SDS011;61893;50.074;14.440;2023-02-15T00:17:28;38.63;;;16.33;;
73015;SDS011;61893;50.074;14.440;2023-02-15T00:20:07;37.50;;;16.53;;
73015;SDS011;61893;50.074;14.440;2023-02-15T00:22:58;40.77;;;17.47;;
73015;SDS011;61893;50.074;14.440;2023-02-15T00:25:52;41.17;;;18.50;;
73015;SDS011;61893;50.074;14.440;2023-02-15T00:28:44;39.40;;;17.63;;
73015;SDS011;61893;50.074;14.440;2023-02-15T00:31:21;41.57;;;16.97;;
73015;SDS011;61893;50.074;14.440;2023-02-15T00:34:09;43.57;;;17.03;;
73015;SDS011;61893;50.074;14.440;2023-02-15T00:36:54;37.75;;;16.15;;
73015;SDS011;61893;50.074;14.440;2023-02-15T00:39:43;43.07;;;17.30;;
73015;SDS011;61893;50.074;14.440;2023-02-15T00:42:09;36.67;;;17.17;;
73015;SDS011;61893;50.074;14.440;2023-02-15T00:44:47;38.80;;;17.43;;
73015;SDS011;61893;50.074;14.440;2023-02-15T00:47:17;35.97;;;16.80;;
73015;SDS011;61893;50.074;14.440;2023-02-15T00:50:01;36.60;;;16.83;;
73015;SDS011;61893;50.074;14.440;2023-02-15T00:52:28;39.63;;;17.87;;
73015;SDS011;61893;50.074;14.440;2023-02-15T00:54:54;40.63;;;16.53;;
73015;SDS011;61893;50.074;14.440;2023-02-15T00:57:26;39.63;;;16.67;;
73015;SDS011;61893;50.074;14.440;2023-02-15T00:59:52;44.90;;;17.93;;
73015;SDS011;61893;50.074;14.440;2023-02-15T01:02:24;39.23;;;16.97;;
73015;SDS011;61893;50.074;14.440;2023-02-15T01:05:11;39.60;;;17.77;;
73015;SDS011;61893;50.074;14.440;2023-02-15T01:07:40;39.00;;;16.27;;
73015;SDS011;61893;50.074;14.440;2023-02-15T01:10:14;43.80;;;16.95;;
73015;SDS011;61893;50.074;14.440;2023-02-15T01:13:01;36.23;;;16.17;;
73015;SDS011;61893;50.074;14.440;2023-02-15T01:15:27;37.80;;;15.60;;
73015;SDS011;61893;50.074;14.440;2023-02-15T01:18:10;38.50;;;16.63;;
73015;SDS011;61893;50.074;14.440;2023-02-15T01:20:44;39.53;;;16.38;;
73015;SDS011;61893;50.074;14.440;2023-02-15T01:23:13;43.37;;;17.83;;
73015;SDS011;61893;50.074;14.440;2023-02-15T01:25:41;39.80;;;17.77;;
73015;SDS011;61893;50.074;14.440;2023-02-15T01:28:08;39.37;;;17.67;;
73015;SDS011;61893;50.074;14.440;2023-02-15T01:30:38;36.50;;;16.67;;
73015;SDS011;61893;50.074;14.440;2023-02-15T01:33:12;38.03;;;16.87;;
73015;SDS011;61893;50.074;14.440;2023-02-15T01:35:57;37.47;;;16.73;;
73015;SDS011;61893;50.074;14.440;2023-02-15T01:38:29;37.80;;;16.97;;
73015;SDS011;61893;50.074;14.440;2023-02-15T01:40:55;40.17;;;16.23;;
73015;SDS011;61893;50.074;14.440;2023-02-15T01:43:45;39.50;;;15.73;;
73015;SDS011;61893;50.074;14.440;2023-02-15T01:46:14;40.33;;;16.80;;
73015;SDS011;61893;50.074;14.440;2023-02-15T01:49:05;45.00;;;17.80;;
73015;SDS011;61893;50.074;14.440;2023-02-15T01:51:38;39.27;;;16.57;;
73015;SDS011;61893;50.074;14.440;2023-02-15T01:54:25;34.37;;;14.60;;
73015;SDS011;61893;50.074;14.440;2023-02-15T01:57:02;37.50;;;16.70;;
73015;SDS011;61893;50.074;14.440;2023-02-15T01:59:52;42.67;;;17.30;;
73015;SDS011;61893;50.074;14.440;2023-02-15T02:02:42;42.07;;;17.03;;
73015;SDS011;61893;50.074;14.440;2023-02-15T02:05:15;43.63;;;16.70;;
73015;SDS011;61893;50.074;14.440;2023-02-15T02:07:45;42.90;;;16.43;;
73015;SDS011;61893;50.074;14.440;2023-02-15T02:10:15;41.37;;;16.10;;
73015;SDS011;61893;50.074;14.440;2023-02-15T02:12:45;42.10;;;18.07;;
73015;SDS011;61893;50.074;14.440;2023-02-15T02:15:15;39.73;;;16.33;;
73015;SDS011;61893;50.074;14.440;2023-02-15T02:29:32;42.40;;;17.17;;
73015;SDS011;61893;50.074;14.440;2023-02-15T02:34:27;42.83;;;17.23;;
73015;SDS011;61893;50.074;14.440;2023-02-15T02:36:58;45.87;;;18.77;;
73015;SDS011;61893;50.074;14.440;2023-02-15T02:39:33;43.20;;;17.07;;
73015;SDS011;61893;50.074;14.440;2023-02-15T02:42:14;47.43;;;16.73;;
73015;SDS011;61893;50.074;14.440;2023-02-15T02:44:51;38.83;;;16.60;;
73015;SDS011;61893;50.074;14.440;2023-02-15T02:47:32;46.40;;;15.33;;
73015;SDS011;61893;50.074;14.440;2023-02-15T02:50:07;44.33;;;17.70;;
73015;SDS011;61893;50.074;14.440;2023-02-15T02:58:26;39.23;;;14.90;;
73015;SDS011;61893;50.074;14.440;2023-02-15T03:07:03;34.43;;;14.93;;
73015;SDS011;61893;50.074;14.440;2023-02-15T03:12:16;38.83;;;15.90;;
73015;SDS011;61893;50.074;14.440;2023-02-15T03:15:07;42.17;;;16.33;;
73015;SDS011;61893;50.074;14.440;2023-02-15T03:17:42;40.80;;;15.27;;
73015;SDS011;61893;50.074;14.440;2023-02-15T03:20:12;43.33;;;15.63;;
73015;SDS011;61893;50.074;14.440;2023-02-15T03:22:51;45.40;;;17.30;;
73015;SDS011;61893;50.074;14.440;2023-02-15T03:25:41;37.80;;;14.80;;
73015;SDS011;61893;50.074;14.440;2023-02-15T03:28:11;41.47;;;15.43;;
73015;SDS011;61893;50.074;14.440;2023-02-15T03:30:43;42.30;;;15.83;;
73015;SDS011;61893;50.074;14.440;2023-02-15T03:33:12;41.70;;;16.73;;
73015;SDS011;61893;50.074;14.440;2023-02-15T03:36:01;42.53;;;16.67;;
73015;SDS011;61893;50.074;14.440;2023-02-15T03:41:30;43.53;;;16.13;;
73015;SDS011;61893;50.074;14.440;2023-02-15T03:44:18;36.67;;;14.23;;
73015;SDS011;61893;50.074;14.440;2023-02-15T03:47:02;48.07;;;16.03;;
73015;SDS011;61893;50.074;14.440;2023-02-15T03:53:23;42.65;;;17.13;;
73015;SDS011;61893;50.074;14.440;2023-02-15T03:56:42;42.90;;;16.90;;
73015;SDS011;61893;50.074;14.440;2023-02-15T03:59:55;41.87;;;16.20;;
73015;SDS011;61893;50.074;14.440;2023-02-15T04:03:33;40.60;;;16.10;;
73015;SDS011;61893;50.074;14.440;2023-02-15T04:06:43;46.50;;;17.50;;
73015;SDS011;61893;50.074;14.440;2023-02-15T04:12:45;52.25;;;18.50;;
73015;SDS011;61893;50.074;14.440;2023-02-15T04:15:46;49.07;;;17.90;;
73015;SDS011;61893;50.074;14.440;2023-02-15T04:18:38;51.30;;;18.40;;
73015;SDS011;61893;50.074;14.440;2023-02-15T04:21:39;48.20;;;17.80;;
73015;SDS011;61893;50.074;14.440;2023-02-15T04:24:24;51.92;;;17.40;;
73015;SDS011;61893;50.074;14.440;2023-02-15T04:27:11;48.50;;;17.77;;
73015;SDS011;61893;50.074;14.440;2023-02-15T04:29:55;47.93;;;19.10;;
73015;SDS011;61893;50.074;14.440;2023-02-15T04:32:21;51.17;;;18.17;;
73015;SDS011;61893;50.074;14.440;2023-02-15T04:34:47;51.00;;;17.90;;
73015;SDS011;61893;50.074;14.440;2023-02-15T04:37:28;51.77;;;18.20;;
73015;SDS011;61893;50.074;14.440;2023-02-15T04:40:01;55.73;;;19.93;;
73015;SDS011;61893;50.074;14.440;2023-02-15T04:42:49;51.07;;;17.80;;
73015;SDS011;61893;50.074;14.440;2023-02-15T04:45:18;39.60;;;16.07;;
73015;SDS011;61893;50.074;14.440;2023-02-15T04:47:59;50.43;;;19.43;;
73015;SDS011;61893;50.074;14.440;2023-02-15T04:50:48;44.30;;;17.63;;
73015;SDS011;61893;50.074;14.440;2023-02-15T04:53:32;39.27;;;16.40;;
73015;SDS011;61893;50.074;14.440;2023-02-15T04:56:21;47.17;;;16.93;;
73015;SDS011;61893;50.074;14.440;2023-02-15T04:59:41;42.53;;;16.13;;
73015;SDS011;61893;50.074;14.440;2023-02-15T05:02:43;52.33;;;18.83;;
73015;SDS011;61893;50.074;14.440;2023-02-15T05:05:28;48.07;;;17.20;;
73015;SDS011;61893;50.074;14.440;2023-02-15T05:07:55;41.00;;;17.53;;
73015;SDS011;61893;50.074;14.440;2023-02-15T05:10:35;46.97;;;17.43;;
73015;SDS011;61893;50.074;14.440;2023-02-15T05:13:44;45.47;;;17.90;;
73015;SDS011;61893;50.074;14.440;2023-02-15T05:16:36;44.77;;;17.03;;
73015;SDS011;61893;50.074;14.440;2023-02-15T05:19:17;49.73;;;17.37;;
73015;SDS011;61893;50.074;14.440;2023-02-15T05:22:14;44.93;;;17.53;;
73015;SDS011;61893;50.074;14.440;2023-02-15T05:25:08;45.60;;;17.40;;
73015;SDS011;61893;50.074;14.440;2023-02-15T05:28:21;45.83;;;16.60;;
73015;SDS011;61893;50.074;14.440;2023-02-15T05:31:06;46.53;;;17.47;;
73015;SDS011;61893;50.074;14.440;2023-02-15T05:33:55;47.13;;;19.53;;
73015;SDS011;61893;50.074;14.440;2023-02-15T05:36:32;42.60;;;18.17;;
73015;SDS011;61893;50.074;14.440;2023-02-15T05:39:24;49.00;;;17.70;;
73015;SDS011;61893;50.074;14.440;2023-02-15T05:42:23;46.33;;;16.63;;
73015;SDS011;61893;50.074;14.440;2023-02-15T05:45:06;48.73;;;15.30;;
73015;SDS011;61893;50.074;14.440;2023-02-15T05:47:38;48.27;;;16.20;;
73015;SDS011;61893;50.074;14.440;2023-02-15T05:50:07;41.93;;;16.37;;
73015;SDS011;61893;50.074;14.440;2023-02-15T05:53:14;49.20;;;16.77;;
73015;SDS011;61893;50.074;14.440;2023-02-15T05:55:41;44.53;;;17.33;;
73015;SDS011;61893;50.074;14.440;2023-02-15T05:58:08;46.03;;;16.27;;
73015;SDS011;61893;50.074;14.440;2023-02-15T06:00:34;43.03;;;17.63;;
73015;SDS011;61893;50.074;14.440;2023-02-15T06:03:00;51.87;;;17.83;;
73015;SDS011;61893;50.074;14.440;2023-02-15T06:05:29;47.73;;;16.87;;
73015;SDS011;61893;50.074;14.440;2023-02-15T06:07:57;42.53;;;16.13;;
73015;SDS011;61893;50.074;14.440;2023-02-15T06:10:23;43.53;;;14.83;;
73015;SDS011;61893;50.074;14.440;2023-02-15T06:12:55;47.10;;;16.13;;
73015;SDS011;61893;50.074;14.440;2023-02-15T06:15:21;49.50;;;15.27;;
73015;SDS011;61893;50.074;14.440;2023-02-15T06:17:47;41.60;;;15.60;;
73015;SDS011;61893;50.074;14.440;2023-02-15T06:20:13;41.90;;;14.23;;
73015;SDS011;61893;50.074;14.440;2023-02-15T06:22:40;39.73;;;14.90;;
73015;SDS011;61893;50.074;14.440;2023-02-15T06:25:06;38.83;;;14.50;;
73015;SDS011;61893;50.074;14.440;2023-02-15T06:27:35;43.50;;;15.67;;
73015;SDS011;61893;50.074;14.440;2023-02-15T06:30:02;41.13;;;14.17;;
73015;SDS011;61893;50.074;14.440;2023-02-15T06:32:32;41.77;;;16.23;;
73015;SDS011;61893;50.074;14.440;2023-02-15T06:35:00;36.60;;;13.13;;
73015;SDS011;61893;50.074;14.440;2023-02-15T06:37:26;33.30;;;13.10;;
73015;SDS011;61893;50.074;14.440;2023-02-15T06:39:58;39.57;;;14.53;;
73015;SDS011;61893;50.074;14.440;2023-02-15T06:42:35;32.23;;;13.60;;
73015;SDS011;61893;50.074;14.440;2023-02-15T06:45:03;42.93;;;15.80;;
73015;SDS011;61893;50.074;14.440;2023-02-15T06:48:20;42.67;;;15.00;;
73015;SDS011;61893;50.074;14.440;2023-02-15T06:51:29;40.07;;;13.17;;
73015;SDS011;61893;50.074;14.440;2023-02-15T06:54:27;37.97;;;13.87;;
73015;SDS011;61893;50.074;14.440;2023-02-15T06:59:59;36.27;;;12.57;;
73015;SDS011;61893;50.074;14.440;2023-02-15T07:03:32;37.00;;;13.13;;
73015;SDS011;61893;50.074;14.440;2023-02-15T07:07:15;40.57;;;13.63;;
73015;SDS011;61893;50.074;14.440;2023-02-15T07:10:01;39.90;;;13.77;;
73015;SDS011;61893;50.074;14.440;2023-02-15T07:12:40;42.20;;;12.83;;
73015;SDS011;61893;50.074;14.440;2023-02-15T07:15:27;37.77;;;13.30;;
73015;SDS011;61893;50.074;14.440;2023-02-15T07:18:17;44.60;;;16.40;;
73015;SDS011;61893;50.074;14.440;2023-02-15T07:21:35;40.03;;;14.33;;
73015;SDS011;61893;50.074;14.440;2023-02-15T07:24:23;41.13;;;15.23;;
73015;SDS011;61893;50.074;14.440;2023-02-15T07:28:06;33.07;;;11.73;;
73015;SDS011;61893;50.074;14.440;2023-02-15T07:31:24;33.43;;;12.10;;
73015;SDS011;61893;50.074;14.440;2023-02-15T07:34:28;39.47;;;12.47;;
73015;SDS011;61893;50.074;14.440;2023-02-15T07:37:06;42.53;;;12.73;;
73015;SDS011;61893;50.074;14.440;2023-02-15T07:39:53;35.57;;;12.77;;
73015;SDS011;61893;50.074;14.440;2023-02-15T07:42:37;41.55;;;13.27;;
73015;SDS011;61893;50.074;14.440;2023-02-15T07:53:59;31.33;;;11.20;;
73015;SDS011;61893;50.074;14.440;2023-02-15T07:56:44;25.90;;;8.23;;
73015;SDS011;61893;50.074;14.440;2023-02-15T07:59:10;33.53;;;8.63;;
73015;SDS011;61893;50.074;14.440;2023-02-15T08:01:38;34.53;;;12.73;;
73015;SDS011;61893;50.074;14.440;2023-02-15T08:04:31;37.90;;;13.03;;
73015;SDS011;61893;50.074;14.440;2023-02-15T08:07:15;33.50;;;13.23;;
73015;SDS011;61893;50.074;14.440;2023-02-15T08:13:02;34.90;;;12.93;;
73015;SDS011;61893;50.074;14.440;2023-02-15T08:15:36;35.38;;;11.88;;
73015;SDS011;61893;50.074;14.440;2023-02-15T08:18:37;29.17;;;11.67;;
73015;SDS011;61893;50.074;14.440;2023-02-15T08:27:47;34.10;;;12.33;;
73015;SDS011;61893;50.074;14.440;2023-02-15T08:30:29;36.63;;;12.90;;
73015;SDS011;61893;50.074;14.440;2023-02-15T08:33:18;38.77;;;11.90;;
73015;SDS011;61893;50.074;14.440;2023-02-15T08:36:19;32.67;;;11.83;;
73015;SDS011;61893;50.074;14.440;2023-02-15T08:39:40;30.03;;;9.70;;
73015;SDS011;61893;50.074;14.440;2023-02-15T08:42:48;31.67;;;11.97;;
73015;SDS011;61893;50.074;14.440;2023-02-15T09:15:16;39.83;;;14.03;;
73015;SDS011;61893;50.074;14.440;2023-02-15T09:21:11;38.63;;;12.90;;
73015;SDS011;61893;50.074;14.440;2023-02-15T09:24:23;37.13;;;13.57;;
73015;SDS011;61893;50.074;14.440;2023-02-15T09:30:22;34.60;;;12.13;;
73015;SDS011;61893;50.074;14.440;2023-02-15T09:33:00;38.72;;;13.13;;
73015;SDS011;61893;50.074;14.440;2023-02-15T09:35:42;36.43;;;12.43;;
73015;SDS011;61893;50.074;14.440;2023-02-15T09:38:29;29.50;;;11.93;;
73015;SDS011;61893;50.074;14.440;2023-02-15T09:51:41;40.60;;;11.97;;
73015;SDS011;61893;50.074;14.440;2023-02-15T10:15:17;36.57;;;13.30;;
73015;SDS011;61893;50.074;14.440;2023-02-15T10:27:48;33.97;;;12.70;;
73015;SDS011;61893;50.074;14.440;2023-02-15T10:35:01;33.57;;;13.20;;
73015;SDS011;61893;50.074;14.440;2023-02-15T10:50:24;36.63;;;13.17;;
73015;SDS011;61893;50.074;14.440;2023-02-15T11:05:16;35.93;;;13.93;;
73015;SDS011;61893;50.074;14.440;2023-02-15T11:08:50;34.87;;;14.27;;
73015;SDS011;61893;50.074;14.440;2023-02-15T11:12:17;38.27;;;13.40;;
73015;SDS011;61893;50.074;14.440;2023-02-15T11:30:28;33.43;;;14.23;;
73015;SDS011;61893;50.074;14.440;2023-02-15T11:36:45;31.80;;;13.37;;
73015;SDS011;61893;50.074;14.440;2023-02-15T11:43:26;34.83;;;12.40;;
73015;SDS011;61893;50.074;14.440;2023-02-15T11:46:31;29.23;;;12.13;;
73015;SDS011;61893;50.074;14.440;2023-02-15T11:49:47;31.10;;;9.23;;
73015;SDS011;61893;50.074;14.440;2023-02-15T11:52:15;51.73;;;14.80;;
73015;SDS011;61893;50.074;14.440;2023-02-15T11:54:48;33.27;;;11.60;;
73015;SDS011;61893;50.074;14.440;2023-02-15T11:59:57;30.85;;;12.30;;
73015;SDS011;61893;50.074;14.440;2023-02-15T12:03:11;27.25;;;12.85;;
73015;SDS011;61893;50.074;14.440;2023-02-15T12:06:58;26.85;;;13.00;;
73015;SDS011;61893;50.074;14.440;2023-02-15T12:21:39;30.33;;;13.63;;
73015;SDS011;61893;50.074;14.440;2023-02-15T12:24:55;33.93;;;14.70;;
73015;SDS011;61893;50.074;14.440;2023-02-15T12:27:33;32.00;;;14.47;;
73015;SDS011;61893;50.074;14.440;2023-02-15T12:33:43;32.10;;;13.87;;
73015;SDS011;61893;50.074;14.440;2023-02-15T12:41:56;31.07;;;12.10;;
73015;SDS011;61893;50.074;14.440;2023-02-15T12:47:46;28.17;;;11.60;;
73015;SDS011;61893;50.074;14.440;2023-02-15T12:50:53;30.87;;;13.40;;
73015;SDS011;61893;50.074;14.440;2023-02-15T12:55:10;28.97;;;11.97;;
73015;SDS011;61893;50.074;14.440;2023-02-15T13:02:06;25.52;;;11.30;;
73015;SDS011;61893;50.074;14.440;2023-02-15T13:06:00;24.50;;;11.40;;
73015;SDS011;61893;50.074;14.440;2023-02-15T13:08:49;28.10;;;11.60;;
73015;SDS011;61893;50.074;14.440;2023-02-15T13:11:57;26.00;;;12.10;;
73015;SDS011;61893;50.074;14.440;2023-02-15T13:15:34;25.40;;;10.40;;
73015;SDS011;61893;50.074;14.440;2023-02-15T13:18:29;29.70;;;12.50;;
73015;SDS011;61893;50.074;14.440;2023-02-15T13:21:29;26.17;;;12.10;;
73015;SDS011;61893;50.074;14.440;2023-02-15T13:24:39;25.60;;;11.07;;
73015;SDS011;61893;50.074;14.440;2023-02-15T13:27:11;29.30;;;11.40;;
73015;SDS011;61893;50.074;14.440;2023-02-15T13:30:26;25.80;;;11.10;;
73015;SDS011;61893;50.074;14.440;2023-02-15T13:33:34;27.00;;;11.83;;
73015;SDS011;61893;50.074;14.440;2023-02-15T13:39:26;33.50;;;13.63;;
73015;SDS011;61893;50.074;14.440;2023-02-15T13:44:47;33.43;;;13.87;;
73015;SDS011;61893;50.074;14.440;2023-02-15T13:50:38;31.47;;;12.10;;
73015;SDS011;61893;50.074;14.440;2023-02-15T14:03:52;29.67;;;11.83;;
73015;SDS011;61893;50.074;14.440;2023-02-15T14:09:58;26.37;;;12.63;;
73015;SDS011;61893;50.074;14.440;2023-02-15T14:12:51;25.17;;;12.23;;
73015;SDS011;61893;50.074;14.440;2023-02-15T14:15:53;21.70;;;10.57;;
73015;SDS011;61893;50.074;14.440;2023-02-15T14:21:59;27.57;;;12.03;;
73015;SDS011;61893;50.074;14.440;2023-02-15T14:28:11;26.67;;;11.30;;
73015;SDS011;61893;50.074;14.440;2023-02-15T14:31:01;28.70;;;11.57;;
73015;SDS011;61893;50.074;14.440;2023-02-15T14:36:49;28.80;;;11.33;;
73015;SDS011;61893;50.074;14.440;2023-02-15T14:39:38;26.42;;;13.20;;
73015;SDS011;61893;50.074;14.440;2023-02-15T14:47:18;24.03;;;11.40;;
73015;SDS011;61893;50.074;14.440;2023-02-15T14:53:14;23.10;;;11.33;;
73015;SDS011;61893;50.074;14.440;2023-02-15T14:56:16;24.87;;;12.20;;
73015;SDS011;61893;50.074;14.440;2023-02-15T15:00:03;25.00;;;12.20;;
73015;SDS011;61893;50.074;14.440;2023-02-15T15:06:56;24.97;;;12.27;;
73015;SDS011;61893;50.074;14.440;2023-02-15T15:10:52;35.90;;;12.90;;
73015;SDS011;61893;50.074;14.440;2023-02-15T15:14:39;30.63;;;12.47;;
73015;SDS011;61893;50.074;14.440;2023-02-15T15:22:01;27.30;;;12.63;;
73015;SDS011;61893;50.074;14.440;2023-02-15T15:37:03;28.23;;;12.93;;
73015;SDS011;61893;50.074;14.440;2023-02-15T15:41:01;28.30;;;12.03;;
73015;SDS011;61893;50.074;14.440;2023-02-15T15:47:17;31.53;;;13.53;;
73015;SDS011;61893;50.074;14.440;2023-02-15T15:49:46;30.90;;;13.17;;
73015;SDS011;61893;50.074;14.440;2023-02-15T15:52:27;33.23;;;12.90;;
73015;SDS011;61893;50.074;14.440;2023-02-15T15:55:19;32.03;;;13.50;;
73015;SDS011;61893;50.074;14.440;2023-02-15T15:58:25;31.43;;;12.80;;
73015;SDS011;61893;50.074;14.440;2023-02-15T16:01:20;29.67;;;12.73;;
73015;SDS011;61893;50.074;14.440;2023-02-15T16:03:52;30.70;;;14.10;;
73015;SDS011;61893;50.074;14.440;2023-02-15T16:06:36;31.10;;;13.40;;
73015;SDS011;61893;50.074;14.440;2023-02-15T16:09:22;38.10;;;14.77;;
73015;SDS011;61893;50.074;14.440;2023-02-15T16:11:57;32.37;;;13.53;;
73015;SDS011;61893;50.074;14.440;2023-02-15T16:15:22;34.70;;;13.27;;
73015;SDS011;61893;50.074;14.440;2023-02-15T16:32:48;53.47;;;19.27;;
73015;SDS011;61893;50.074;14.440;2023-02-15T16:35:54;54.90;;;20.07;;
73015;SDS011;61893;50.074;14.440;2023-02-15T16:38:34;55.07;;;20.67;;
73015;SDS011;61893;50.074;14.440;2023-02-15T16:41:09;59.97;;;21.40;;
73015;SDS011;61893;50.074;14.440;2023-02-15T16:43:47;56.33;;;20.57;;
73015;SDS011;61893;50.074;14.440;2023-02-15T16:46:23;59.27;;;20.97;;
73015;SDS011;61893;50.074;14.440;2023-02-15T16:48:57;57.42;;;20.38;;
73015;SDS011;61893;50.074;14.440;2023-02-15T16:51:42;59.77;;;21.17;;
73015;SDS011;61893;50.074;14.440;2023-02-15T16:54:41;55.27;;;20.30;;
73015;SDS011;61893;50.074;14.440;2023-02-15T16:57:20;53.60;;;19.57;;
73015;SDS011;61893;50.074;14.440;2023-02-15T16:59:52;53.17;;;20.43;;
73015;SDS011;61893;50.074;14.440;2023-02-15T17:02:39;50.63;;;19.23;;
73015;SDS011;61893;50.074;14.440;2023-02-15T17:08:18;52.43;;;21.40;;
73015;SDS011;61893;50.074;14.440;2023-02-15T17:16:41;65.53;;;21.57;;
73015;SDS011;61893;50.074;14.440;2023-02-15T17:21:55;52.70;;;19.33;;
73015;SDS011;61893;50.074;14.440;2023-02-15T17:27:06;62.43;;;21.83;;
73015;SDS011;61893;50.074;14.440;2023-02-15T17:29:45;51.73;;;19.60;;
73015;SDS011;61893;50.074;14.440;2023-02-15T17:36:57;57.43;;;21.00;;
73015;SDS011;61893;50.074;14.440;2023-02-15T17:40:34;63.13;;;21.07;;
73015;SDS011;61893;50.074;14.440;2023-02-15T17:43:27;60.00;;;20.80;;
73015;SDS011;61893;50.074;14.440;2023-02-15T17:46:16;58.07;;;20.13;;
73015;SDS011;61893;50.074;14.440;2023-02-15T17:48:56;60.00;;;21.53;;
73015;SDS011;61893;50.074;14.440;2023-02-15T17:51:22;61.47;;;22.80;;
73015;SDS011;61893;50.074;14.440;2023-02-15T17:54:14;66.57;;;22.90;;
73015;SDS011;61893;50.074;14.440;2023-02-15T17:57:34;49.05;;;20.63;;
73015;SDS011;61893;50.074;14.440;2023-02-15T18:00:14;62.37;;;21.07;;
73015;SDS011;61893;50.074;14.440;2023-02-15T18:03:17;64.80;;;21.93;;
73015;SDS011;61893;50.074;14.440;2023-02-15T18:06:52;54.77;;;21.33;;
73015;SDS011;61893;50.074;14.440;2023-02-15T18:10:11;53.60;;;20.73;;
73015;SDS011;61893;50.074;14.440;2023-02-15T18:13:36;62.77;;;22.23;;
73015;SDS011;61893;50.074;14.440;2023-02-15T18:16:21;55.80;;;21.17;;
73015;SDS011;61893;50.074;14.440;2023-02-15T18:19:41;56.07;;;20.77;;
73015;SDS011;61893;50.074;14.440;2023-02-15T18:22:48;58.07;;;21.43;;
73015;SDS011;61893;50.074;14.440;2023-02-15T18:25:42;56.73;;;20.87;;
73015;SDS011;61893;50.074;14.440;2023-02-15T18:28:11;62.43;;;22.87;;
73015;SDS011;61893;50.074;14.440;2023-02-15T18:30:54;56.73;;;21.23;;
73015;SDS011;61893;50.074;14.440;2023-02-15T18:33:47;57.43;;;22.23;;
73015;SDS011;61893;50.074;14.440;2023-02-15T18:42:38;62.40;;;22.70;;
73015;SDS011;61893;50.074;14.440;2023-02-15T18:48:34;68.70;;;24.30;;
73015;SDS011;61893;50.074;14.440;2023-02-15T18:53:50;69.00;;;26.27;;
73015;SDS011;61893;50.074;14.440;2023-02-15T18:56:31;70.67;;;25.43;;
73015;SDS011;61893;50.074;14.440;2023-02-15T18:59:22;74.10;;;26.50;;
73015;SDS011;61893;50.074;14.440;2023-02-15T19:02:28;62.53;;;22.45;;
73015;SDS011;61893;50.074;14.440;2023-02-15T19:04:54;58.43;;;20.87;;
73015;SDS011;61893;50.074;14.440;2023-02-15T19:07:28;66.28;;;25.77;;
73015;SDS011;61893;50.074;14.440;2023-02-15T19:09:57;61.00;;;22.53;;
73015;SDS011;61893;50.074;14.440;2023-02-15T19:12:30;73.03;;;24.52;;
73015;SDS011;61893;50.074;14.440;2023-02-15T19:14:57;63.17;;;22.60;;
73015;SDS011;61893;50.074;14.440;2023-02-15T19:17:23;63.47;;;22.00;;
73015;SDS011;61893;50.074;14.440;2023-02-15T19:19:50;64.00;;;22.47;;
73015;SDS011;61893;50.074;14.440;2023-02-15T19:22:27;64.67;;;23.33;;
73015;SDS011;61893;50.074;14.440;2023-02-15T19:24:56;57.73;;;23.30;;
73015;SDS011;61893;50.074;14.440;2023-02-15T19:29:59;62.70;;;24.80;;
73015;SDS011;61893;50.074;14.440;2023-02-15T19:32:30;65.67;;;25.27;;
73015;SDS011;61893;50.074;14.440;2023-02-15T19:34:56;71.47;;;25.60;;
73015;SDS011;61893;50.074;14.440;2023-02-15T19:37:30;66.87;;;24.93;;
73015;SDS011;61893;50.074;14.440;2023-02-15T19:40:01;62.83;;;24.57;;
73015;SDS011;61893;50.074;14.440;2023-02-15T19:42:30;72.20;;;26.10;;
73015;SDS011;61893;50.074;14.440;2023-02-15T19:44:56;73.13;;;25.87;;
73015;SDS011;61893;50.074;14.440;2023-02-15T19:47:22;69.43;;;25.07;;
73015;SDS011;61893;50.074;14.440;2023-02-15T19:49:51;74.67;;;24.97;;
73015;SDS011;61893;50.074;14.440;2023-02-15T19:52:32;73.03;;;25.13;;
73015;SDS011;61893;50.074;14.440;2023-02-15T19:54:58;70.50;;;26.37;;
73015;SDS011;61893;50.074;14.440;2023-02-15T19:57:24;69.93;;;25.37;;
73015;SDS011;61893;50.074;14.440;2023-02-15T19:59:52;70.43;;;25.87;;
73015;SDS011;61893;50.074;14.440;2023-02-15T20:02:30;67.90;;;24.63;;
73015;SDS011;61893;50.074;14.440;2023-02-15T20:05:22;70.87;;;24.73;;
73015;SDS011;61893;50.074;14.440;2023-02-15T20:08:40;75.20;;;22.97;;
73015;SDS011;61893;50.074;14.440;2023-02-15T20:11:36;61.27;;;23.40;;
73015;SDS011;61893;50.074;14.440;2023-02-15T20:15:04;69.47;;;25.53;;
73015;SDS011;61893;50.074;14.440;2023-02-15T20:18:29;66.67;;;23.27;;
73015;SDS011;61893;50.074;14.440;2023-02-15T20:20:58;63.77;;;25.67;;
73015;SDS011;61893;50.074;14.440;2023-02-15T20:23:59;72.33;;;24.67;;
73015;SDS011;61893;50.074;14.440;2023-02-15T20:26:58;64.70;;;24.20;;
73015;SDS011;61893;50.074;14.440;2023-02-15T20:30:19;67.37;;;24.43;;
73015;SDS011;61893;50.074;14.440;2023-02-15T20:33:21;65.17;;;25.60;;
73015;SDS011;61893;50.074;14.440;2023-02-15T20:35:48;71.13;;;24.50;;
73015;SDS011;61893;50.074;14.440;2023-02-15T20:38:22;67.43;;;25.73;;
73015;SDS011;61893;50.074;14.440;2023-02-15T20:40:52;71.00;;;25.67;;
73015;SDS011;61893;50.074;14.440;2023-02-15T20:47:21;65.45;;;23.92;;
73015;SDS011;61893;50.074;14.440;2023-02-15T20:50:47;64.03;;;23.73;;
73015;SDS011;61893;50.074;14.440;2023-02-15T20:54:25;61.43;;;22.70;;
73015;SDS011;61893;50.074;14.440;2023-02-15T20:57:59;67.80;;;27.03;;
73015;SDS011;61893;50.074;14.440;2023-02-15T21:01:39;62.93;;;25.50;;
73015;SDS011;61893;50.074;14.440;2023-02-15T21:05:38;70.77;;;25.60;;
73015;SDS011;61893;50.074;14.440;2023-02-15T21:08:48;61.00;;;23.33;;
73015;SDS011;61893;50.074;14.440;2023-02-15T21:11:29;66.93;;;25.70;;
73015;SDS011;61893;50.074;14.440;2023-02-15T21:14:37;72.27;;;24.97;;
73015;SDS011;61893;50.074;14.440;2023-02-15T21:17:09;71.13;;;26.97;;
73015;SDS011;61893;50.074;14.440;2023-02-15T21:20:02;65.97;;;24.47;;
73015;SDS011;61893;50.074;14.440;2023-02-15T21:22:59;65.63;;;26.07;;
73015;SDS011;61893;50.074;14.440;2023-02-15T21:25:57;72.60;;;26.17;;
73015;SDS011;61893;50.074;14.440;2023-02-15T21:28:42;73.07;;;27.20;;
73015;SDS011;61893;50.074;14.440;2023-02-15T21:31:37;69.87;;;26.67;;
73015;SDS011;61893;50.074;14.440;2023-02-15T21:35:09;68.57;;;24.63;;
73015;SDS011;61893;50.074;14.440;2023-02-15T21:37:46;66.53;;;25.93;;
73015;SDS011;61893;50.074;14.440;2023-02-15T21:40:29;64.03;;;24.50;;
73015;SDS011;61893;50.074;14.440;2023-02-15T21:43:01;63.17;;;24.17;;